sensor_id;sensor_type;location;lat;lon;timestamp;temperature;humidity
8420;DHT22;4247;48.550;8.822;2023-07-13T00:01:13;19.10;99.90
8420;DHT22;4247;48.550;8.822;2023-07-13T00:03:39;19.10;99.90
8420;DHT22;4247;48.550;8.822;2023-07-13T00:06:07;19.00;99.90
8420;DHT22;4247;48.550;8.822;2023-07-13T00:08:34;18.90;99.90
8420;DHT22;4247;48.550;8.822;2023-07-13T00:11:01;18.90;99.90
8420;DHT22;4247;48.550;8.822;2023-07-13T00:13:29;18.80;99.90
8420;DHT22;4247;48.550;8.822;2023-07-13T00:15:57;18.80;99.90
8420;DHT22;4247;48.550;8.822;2023-07-13T00:18:25;18.70;99.90
8420;DHT22;4247;48.550;8.822;2023-07-13T00:20:55;18.70;99.90
8420;DHT22;4247;48.550;8.822;2023-07-13T00:23:30;18.70;99.90
8420;DHT22;4247;48.550;8.822;2023-07-13T00:25:59;18.60;99.90
8420;DHT22;4247;48.550;8.822;2023-07-13T00:28:26;18.60;99.90
8420;DHT22;4247;48.550;8.822;2023-07-13T00:30:52;18.60;99.90
8420;DHT22;4247;48.550;8.822;2023-07-13T00:33:19;18.60;99.90
8420;DHT22;4247;48.550;8.822;2023-07-13T00:35:48;18.50;99.90
8420;DHT22;4247;48.550;8.822;2023-07-13T00:38:15;18.50;99.90
8420;DHT22;4247;48.550;8.822;2023-07-13T00:40:42;18.50;99.90
8420;DHT22;4247;48.550;8.822;2023-07-13T00:43:11;18.40;99.90
8420;DHT22;4247;48.550;8.822;2023-07-13T00:48:42;18.50;99.90
8420;DHT22;4247;48.550;8.822;2023-07-13T00:51:13;18.50;99.90
8420;DHT22;4247;48.550;8.822;2023-07-13T00:53:42;18.50;99.90
8420;DHT22;4247;48.550;8.822;2023-07-13T00:56:09;18.40;99.90
8420;DHT22;4247;48.550;8.822;2023-07-13T00:58:37;18.50;99.90
8420;DHT22;4247;48.550;8.822;2023-07-13T01:01:04;18.50;99.90
8420;DHT22;4247;48.550;8.822;2023-07-13T01:03:30;18.50;99.90
8420;DHT22;4247;48.550;8.822;2023-07-13T01:05:58;18.50;99.90
8420;DHT22;4247;48.550;8.822;2023-07-13T01:08:26;18.50;99.90
8420;DHT22;4247;48.550;8.822;2023-07-13T01:10:54;18.50;99.90
8420;DHT22;4247;48.550;8.822;2023-07-13T01:13:20;18.50;99.90
8420;DHT22;4247;48.550;8.822;2023-07-13T01:15:48;18.50;99.90
8420;DHT22;4247;48.550;8.822;2023-07-13T01:18:18;18.50;99.90
8420;DHT22;4247;48.550;8.822;2023-07-13T01:20:54;18.50;99.90
8420;DHT22;4247;48.550;8.822;2023-07-13T01:23:22;18.50;99.90
8420;DHT22;4247;48.550;8.822;2023-07-13T01:25:49;18.50;99.90
8420;DHT22;4247;48.550;8.822;2023-07-13T01:28:16;18.40;99.90
8420;DHT22;4247;48.550;8.822;2023-07-13T01:30:44;18.40;99.90
8420;DHT22;4247;48.550;8.822;2023-07-13T01:33:12;18.40;99.90
8420;DHT22;4247;48.550;8.822;2023-07-13T01:35:39;18.30;99.90
8420;DHT22;4247;48.550;8.822;2023-07-13T01:38:08;18.30;99.90
8420;DHT22;4247;48.550;8.822;2023-07-13T01:40:36;18.30;99.90
8420;DHT22;4247;48.550;8.822;2023-07-13T01:43:03;18.30;99.90
8420;DHT22;4247;48.550;8.822;2023-07-13T01:45:30;18.20;99.90
8420;DHT22;4247;48.550;8.822;2023-07-13T01:47:57;18.20;99.90
8420;DHT22;4247;48.550;8.822;2023-07-13T01:50:25;18.20;99.90
8420;DHT22;4247;48.550;8.822;2023-07-13T01:52:51;18.10;99.90
8420;DHT22;4247;48.550;8.822;2023-07-13T01:55:20;18.10;99.90
8420;DHT22;4247;48.550;8.822;2023-07-13T01:57:47;18.00;99.90
8420;DHT22;4247;48.550;8.822;2023-07-13T02:00:14;18.00;99.90
8420;DHT22;4247;48.550;8.822;2023-07-13T02:02:41;17.90;99.90
8420;DHT22;4247;48.550;8.822;2023-07-13T02:05:08;17.90;99.90
8420;DHT22;4247;48.550;8.822;2023-07-13T02:07:35;17.80;99.90
8420;DHT22;4247;48.550;8.822;2023-07-13T02:10:02;17.80;99.90
8420;DHT22;4247;48.550;8.822;2023-07-13T02:12:30;17.70;99.90
8420;DHT22;4247;48.550;8.822;2023-07-13T02:14:56;17.70;99.90
8420;DHT22;4247;48.550;8.822;2023-07-13T02:17:24;17.70;99.90
8420;DHT22;4247;48.550;8.822;2023-07-13T02:19:50;17.60;99.90
8420;DHT22;4247;48.550;8.822;2023-07-13T02:22:17;17.60;99.90
8420;DHT22;4247;48.550;8.822;2023-07-13T02:24:44;17.60;99.90
8420;DHT22;4247;48.550;8.822;2023-07-13T02:27:10;17.50;99.90
8420;DHT22;4247;48.550;8.822;2023-07-13T02:29:39;17.50;99.90
8420;DHT22;4247;48.550;8.822;2023-07-13T02:32:06;17.40;99.90
8420;DHT22;4247;48.550;8.822;2023-07-13T02:34:33;17.40;99.90
8420;DHT22;4247;48.550;8.822;2023-07-13T02:37:00;17.30;99.90
8420;DHT22;4247;48.550;8.822;2023-07-13T02:39:27;17.30;99.90
8420;DHT22;4247;48.550;8.822;2023-07-13T02:41:54;17.20;99.90
8420;DHT22;4247;48.550;8.822;2023-07-13T02:44:21;17.20;99.90
8420;DHT22;4247;48.550;8.822;2023-07-13T02:46:49;17.20;99.90
8420;DHT22;4247;48.550;8.822;2023-07-13T02:49:15;17.10;99.90
8420;DHT22;4247;48.550;8.822;2023-07-13T02:51:42;17.10;99.90
8420;DHT22;4247;48.550;8.822;2023-07-13T02:54:09;17.10;99.90
8420;DHT22;4247;48.550;8.822;2023-07-13T02:56:37;17.10;99.90
8420;DHT22;4247;48.550;8.822;2023-07-13T02:59:05;17.10;99.90
8420;DHT22;4247;48.550;8.822;2023-07-13T03:01:31;17.10;99.90
8420;DHT22;4247;48.550;8.822;2023-07-13T03:04:02;17.10;99.90
8420;DHT22;4247;48.550;8.822;2023-07-13T03:06:30;17.10;99.90
8420;DHT22;4247;48.550;8.822;2023-07-13T03:08:57;17.10;99.90
8420;DHT22;4247;48.550;8.822;2023-07-13T03:11:25;17.10;99.90
8420;DHT22;4247;48.550;8.822;2023-07-13T03:13:52;17.20;99.90
8420;DHT22;4247;48.550;8.822;2023-07-13T03:16:20;17.10;99.90
8420;DHT22;4247;48.550;8.822;2023-07-13T03:18:47;17.10;99.90
8420;DHT22;4247;48.550;8.822;2023-07-13T03:21:16;17.10;99.90
8420;DHT22;4247;48.550;8.822;2023-07-13T03:23:42;17.10;99.90
8420;DHT22;4247;48.550;8.822;2023-07-13T03:26:11;17.10;99.90
8420;DHT22;4247;48.550;8.822;2023-07-13T03:28:38;17.00;99.90
8420;DHT22;4247;48.550;8.822;2023-07-13T03:31:08;17.00;99.90
8420;DHT22;4247;48.550;8.822;2023-07-13T03:33:36;17.00;99.90
8420;DHT22;4247;48.550;8.822;2023-07-13T03:36:03;16.90;99.90
8420;DHT22;4247;48.550;8.822;2023-07-13T03:38:32;16.90;99.90
8420;DHT22;4247;48.550;8.822;2023-07-13T03:40:59;16.90;99.90
8420;DHT22;4247;48.550;8.822;2023-07-13T03:43:26;17.00;99.90
8420;DHT22;4247;48.550;8.822;2023-07-13T03:45:53;16.90;99.90
8420;DHT22;4247;48.550;8.822;2023-07-13T03:48:19;16.90;99.90
8420;DHT22;4247;48.550;8.822;2023-07-13T03:50:47;16.90;99.90
8420;DHT22;4247;48.550;8.822;2023-07-13T03:53:15;16.90;99.90
8420;DHT22;4247;48.550;8.822;2023-07-13T03:55:43;16.90;99.90
8420;DHT22;4247;48.550;8.822;2023-07-13T03:58:25;16.90;99.90
8420;DHT22;4247;48.550;8.822;2023-07-13T04:00:52;16.90;99.90
8420;DHT22;4247;48.550;8.822;2023-07-13T04:03:19;16.90;99.90
8420;DHT22;4247;48.550;8.822;2023-07-13T04:05:46;16.90;99.90
8420;DHT22;4247;48.550;8.822;2023-07-13T04:08:13;16.90;99.90
8420;DHT22;4247;48.550;8.822;2023-07-13T04:10:40;16.80;99.90
8420;DHT22;4247;48.550;8.822;2023-07-13T04:13:08;16.80;99.90
8420;DHT22;4247;48.550;8.822;2023-07-13T04:15:34;16.80;99.90
8420;DHT22;4247;48.550;8.822;2023-07-13T04:18:01;16.80;99.90
8420;DHT22;4247;48.550;8.822;2023-07-13T04:20:29;16.70;99.90
8420;DHT22;4247;48.550;8.822;2023-07-13T04:22:56;16.70;99.90
8420;DHT22;4247;48.550;8.822;2023-07-13T04:25:23;16.70;99.90
8420;DHT22;4247;48.550;8.822;2023-07-13T04:27:50;16.70;99.90
8420;DHT22;4247;48.550;8.822;2023-07-13T04:30:19;16.70;99.90
8420;DHT22;4247;48.550;8.822;2023-07-13T04:32:45;16.70;99.90
8420;DHT22;4247;48.550;8.822;2023-07-13T04:35:12;16.70;99.90
8420;DHT22;4247;48.550;8.822;2023-07-13T04:37:39;16.80;99.90
8420;DHT22;4247;48.550;8.822;2023-07-13T04:40:07;16.80;99.90
8420;DHT22;4247;48.550;8.822;2023-07-13T04:42:37;16.80;99.90
8420;DHT22;4247;48.550;8.822;2023-07-13T04:45:05;16.80;99.90
8420;DHT22;4247;48.550;8.822;2023-07-13T04:47:33;16.90;99.90
8420;DHT22;4247;48.550;8.822;2023-07-13T04:50:00;16.90;99.90
8420;DHT22;4247;48.550;8.822;2023-07-13T04:52:26;17.00;99.90
8420;DHT22;4247;48.550;8.822;2023-07-13T04:54:53;17.00;99.90
8420;DHT22;4247;48.550;8.822;2023-07-13T04:57:20;17.10;99.90
8420;DHT22;4247;48.550;8.822;2023-07-13T04:59:46;17.10;99.90
8420;DHT22;4247;48.550;8.822;2023-07-13T05:02:13;17.30;99.90
8420;DHT22;4247;48.550;8.822;2023-07-13T05:04:41;17.30;99.90
8420;DHT22;4247;48.550;8.822;2023-07-13T05:07:08;17.40;99.90
8420;DHT22;4247;48.550;8.822;2023-07-13T05:09:35;17.60;99.90
8420;DHT22;4247;48.550;8.822;2023-07-13T05:12:01;17.70;99.90
8420;DHT22;4247;48.550;8.822;2023-07-13T05:14:28;17.80;99.90
8420;DHT22;4247;48.550;8.822;2023-07-13T05:16:55;17.80;99.90
8420;DHT22;4247;48.550;8.822;2023-07-13T05:19:23;17.80;99.90
8420;DHT22;4247;48.550;8.822;2023-07-13T05:21:51;17.80;99.90
8420;DHT22;4247;48.550;8.822;2023-07-13T05:24:17;17.80;99.90
8420;DHT22;4247;48.550;8.822;2023-07-13T05:26:44;17.80;99.90
8420;DHT22;4247;48.550;8.822;2023-07-13T05:29:11;17.90;99.90
8420;DHT22;4247;48.550;8.822;2023-07-13T05:31:38;17.90;99.90
8420;DHT22;4247;48.550;8.822;2023-07-13T05:34:05;17.90;99.90
8420;DHT22;4247;48.550;8.822;2023-07-13T05:36:31;17.90;99.90
8420;DHT22;4247;48.550;8.822;2023-07-13T05:38:59;17.90;99.90
8420;DHT22;4247;48.550;8.822;2023-07-13T05:41:26;17.80;99.90
8420;DHT22;4247;48.550;8.822;2023-07-13T05:43:53;18.00;99.90
8420;DHT22;4247;48.550;8.822;2023-07-13T05:46:19;18.00;99.90
8420;DHT22;4247;48.550;8.822;2023-07-13T05:48:46;18.10;99.90
8420;DHT22;4247;48.550;8.822;2023-07-13T05:51:13;18.10;99.90
8420;DHT22;4247;48.550;8.822;2023-07-13T05:53:40;18.20;99.90
8420;DHT22;4247;48.550;8.822;2023-07-13T05:56:08;18.30;99.90
8420;DHT22;4247;48.550;8.822;2023-07-13T05:58:34;18.40;99.90
8420;DHT22;4247;48.550;8.822;2023-07-13T06:01:04;18.50;99.90
8420;DHT22;4247;48.550;8.822;2023-07-13T06:03:31;18.60;99.90
8420;DHT22;4247;48.550;8.822;2023-07-13T06:05:57;18.80;99.90
8420;DHT22;4247;48.550;8.822;2023-07-13T06:08:26;19.00;99.90
8420;DHT22;4247;48.550;8.822;2023-07-13T06:10:53;19.30;99.90
8420;DHT22;4247;48.550;8.822;2023-07-13T06:13:21;19.60;99.90
8420;DHT22;4247;48.550;8.822;2023-07-13T06:15:48;19.70;99.90
8420;DHT22;4247;48.550;8.822;2023-07-13T06:18:15;19.90;99.90
8420;DHT22;4247;48.550;8.822;2023-07-13T06:20:42;20.10;99.90
8420;DHT22;4247;48.550;8.822;2023-07-13T06:23:08;20.20;99.90
8420;DHT22;4247;48.550;8.822;2023-07-13T06:25:35;20.40;99.60
8420;DHT22;4247;48.550;8.822;2023-07-13T06:28:02;20.50;98.50
8420;DHT22;4247;48.550;8.822;2023-07-13T06:30:30;20.60;96.70
8420;DHT22;4247;48.550;8.822;2023-07-13T06:32:57;20.60;97.40
8420;DHT22;4247;48.550;8.822;2023-07-13T06:35:24;20.70;96.70
8420;DHT22;4247;48.550;8.822;2023-07-13T06:37:50;20.80;96.60
8420;DHT22;4247;48.550;8.822;2023-07-13T06:40:17;20.90;97.00
8420;DHT22;4247;48.550;8.822;2023-07-13T06:42:44;20.90;95.90
8420;DHT22;4247;48.550;8.822;2023-07-13T06:45:10;20.90;95.50
8420;DHT22;4247;48.550;8.822;2023-07-13T06:47:38;20.90;94.90
8420;DHT22;4247;48.550;8.822;2023-07-13T06:50:06;20.90;95.10
8420;DHT22;4247;48.550;8.822;2023-07-13T06:52:32;21.00;95.80
8420;DHT22;4247;48.550;8.822;2023-07-13T06:55:00;21.10;95.00
8420;DHT22;4247;48.550;8.822;2023-07-13T06:57:26;21.10;94.40
8420;DHT22;4247;48.550;8.822;2023-07-13T06:59:53;21.20;93.80
8420;DHT22;4247;48.550;8.822;2023-07-13T07:02:20;21.30;94.60
8420;DHT22;4247;48.550;8.822;2023-07-13T07:04:48;21.40;93.80
8420;DHT22;4247;48.550;8.822;2023-07-13T07:07:15;21.50;94.80
8420;DHT22;4247;48.550;8.822;2023-07-13T07:09:42;21.50;93.30
8420;DHT22;4247;48.550;8.822;2023-07-13T07:12:09;21.60;94.20
8420;DHT22;4247;48.550;8.822;2023-07-13T07:14:35;21.70;92.60
8420;DHT22;4247;48.550;8.822;2023-07-13T07:17:02;21.70;91.80
8420;DHT22;4247;48.550;8.822;2023-07-13T07:19:30;21.70;91.10
8420;DHT22;4247;48.550;8.822;2023-07-13T07:21:58;21.80;91.70
8420;DHT22;4247;48.550;8.822;2023-07-13T07:24:25;21.90;91.60
8420;DHT22;4247;48.550;8.822;2023-07-13T07:26:52;21.90;91.10
8420;DHT22;4247;48.550;8.822;2023-07-13T07:29:18;22.00;91.30
8420;DHT22;4247;48.550;8.822;2023-07-13T07:31:45;22.10;91.60
8420;DHT22;4247;48.550;8.822;2023-07-13T07:34:12;22.30;90.90
8420;DHT22;4247;48.550;8.822;2023-07-13T07:36:38;22.40;90.90
8420;DHT22;4247;48.550;8.822;2023-07-13T07:39:07;22.60;87.50
8420;DHT22;4247;48.550;8.822;2023-07-13T07:41:33;22.70;89.20
8420;DHT22;4247;48.550;8.822;2023-07-13T07:44:00;22.90;84.00
8420;DHT22;4247;48.550;8.822;2023-07-13T07:46:27;23.00;85.00
8420;DHT22;4247;48.550;8.822;2023-07-13T07:48:53;23.30;86.20
8420;DHT22;4247;48.550;8.822;2023-07-13T07:51:20;23.40;82.70
8420;DHT22;4247;48.550;8.822;2023-07-13T07:53:47;23.80;83.10
8420;DHT22;4247;48.550;8.822;2023-07-13T07:56:15;24.00;80.70
8420;DHT22;4247;48.550;8.822;2023-07-13T07:58:42;24.30;81.70
8420;DHT22;4247;48.550;8.822;2023-07-13T08:01:10;24.60;83.10
8420;DHT22;4247;48.550;8.822;2023-07-13T08:03:36;24.70;80.00
8420;DHT22;4247;48.550;8.822;2023-07-13T08:06:03;25.00;81.90
8420;DHT22;4247;48.550;8.822;2023-07-13T08:08:30;25.10;80.90
8420;DHT22;4247;48.550;8.822;2023-07-13T08:10:56;25.40;80.40
8420;DHT22;4247;48.550;8.822;2023-07-13T08:13:24;25.80;82.30
8420;DHT22;4247;48.550;8.822;2023-07-13T08:15:51;25.80;78.30
8420;DHT22;4247;48.550;8.822;2023-07-13T08:18:18;25.90;77.40
8420;DHT22;4247;48.550;8.822;2023-07-13T08:20:44;25.80;75.30
8420;DHT22;4247;48.550;8.822;2023-07-13T08:23:11;25.70;80.40
8420;DHT22;4247;48.550;8.822;2023-07-13T08:25:38;25.50;79.60
8420;DHT22;4247;48.550;8.822;2023-07-13T08:28:04;25.10;77.90
8420;DHT22;4247;48.550;8.822;2023-07-13T08:30:32;24.90;78.00
8420;DHT22;4247;48.550;8.822;2023-07-13T08:32:59;25.00;79.20
8420;DHT22;4247;48.550;8.822;2023-07-13T08:35:26;25.00;76.30
8420;DHT22;4247;48.550;8.822;2023-07-13T08:37:52;24.90;75.00
8420;DHT22;4247;48.550;8.822;2023-07-13T08:40:23;24.90;76.70
8420;DHT22;4247;48.550;8.822;2023-07-13T08:42:54;24.80;76.50
8420;DHT22;4247;48.550;8.822;2023-07-13T08:45:24;24.70;75.20
8420;DHT22;4247;48.550;8.822;2023-07-13T08:47:59;24.80;76.00
8420;DHT22;4247;48.550;8.822;2023-07-13T08:50:31;24.70;74.40
8420;DHT22;4247;48.550;8.822;2023-07-13T08:53:00;24.80;76.70
8420;DHT22;4247;48.550;8.822;2023-07-13T08:55:31;24.90;76.90
8420;DHT22;4247;48.550;8.822;2023-07-13T08:58:05;24.90;77.10
8420;DHT22;4247;48.550;8.822;2023-07-13T09:00:42;24.90;75.40
8420;DHT22;4247;48.550;8.822;2023-07-13T09:03:23;25.10;77.10
8420;DHT22;4247;48.550;8.822;2023-07-13T09:05:53;25.30;76.10
8420;DHT22;4247;48.550;8.822;2023-07-13T09:08:43;25.30;73.40
8420;DHT22;4247;48.550;8.822;2023-07-13T09:11:23;25.30;74.50
8420;DHT22;4247;48.550;8.822;2023-07-13T09:13:58;25.40;76.50
8420;DHT22;4247;48.550;8.822;2023-07-13T09:16:28;25.50;76.00
8420;DHT22;4247;48.550;8.822;2023-07-13T09:18:59;25.60;73.30
8420;DHT22;4247;48.550;8.822;2023-07-13T09:21:29;25.50;73.00
8420;DHT22;4247;48.550;8.822;2023-07-13T09:24:01;25.40;75.70
8420;DHT22;4247;48.550;8.822;2023-07-13T09:26:30;25.50;72.80
8420;DHT22;4247;48.550;8.822;2023-07-13T09:29:03;25.50;73.30
8420;DHT22;4247;48.550;8.822;2023-07-13T09:31:40;25.30;74.60
8420;DHT22;4247;48.550;8.822;2023-07-13T09:34:11;25.20;74.80
8420;DHT22;4247;48.550;8.822;2023-07-13T09:36:38;25.30;77.10
8420;DHT22;4247;48.550;8.822;2023-07-13T09:39:12;25.30;76.10
8420;DHT22;4247;48.550;8.822;2023-07-13T09:41:46;25.50;75.00
8420;DHT22;4247;48.550;8.822;2023-07-13T09:44:15;25.80;76.30
8420;DHT22;4247;48.550;8.822;2023-07-13T09:46:45;25.90;72.90
8420;DHT22;4247;48.550;8.822;2023-07-13T09:49:13;25.90;73.10
8420;DHT22;4247;48.550;8.822;2023-07-13T09:51:41;25.90;71.90
8420;DHT22;4247;48.550;8.822;2023-07-13T09:54:18;25.70;73.60
8420;DHT22;4247;48.550;8.822;2023-07-13T09:56:45;25.50;72.10
8420;DHT22;4247;48.550;8.822;2023-07-13T09:59:19;25.30;72.70
8420;DHT22;4247;48.550;8.822;2023-07-13T10:01:46;25.30;74.50
8420;DHT22;4247;48.550;8.822;2023-07-13T10:04:17;25.30;73.20
8420;DHT22;4247;48.550;8.822;2023-07-13T10:06:45;25.20;71.40
8420;DHT22;4247;48.550;8.822;2023-07-13T10:09:15;25.40;72.60
8420;DHT22;4247;48.550;8.822;2023-07-13T10:11:44;25.50;72.30
8420;DHT22;4247;48.550;8.822;2023-07-13T10:14:14;25.50;70.70
8420;DHT22;4247;48.550;8.822;2023-07-13T10:16:43;25.50;72.60
8420;DHT22;4247;48.550;8.822;2023-07-13T10:19:13;25.50;72.70
8420;DHT22;4247;48.550;8.822;2023-07-13T10:21:49;25.70;77.60
8420;DHT22;4247;48.550;8.822;2023-07-13T10:24:20;25.70;72.60
8420;DHT22;4247;48.550;8.822;2023-07-13T10:26:52;25.60;70.20
8420;DHT22;4247;48.550;8.822;2023-07-13T10:29:22;25.60;71.00
8420;DHT22;4247;48.550;8.822;2023-07-13T10:31:51;25.70;69.80
8420;DHT22;4247;48.550;8.822;2023-07-13T10:34:18;25.80;70.00
8420;DHT22;4247;48.550;8.822;2023-07-13T10:36:47;25.90;68.80
8420;DHT22;4247;48.550;8.822;2023-07-13T10:39:19;26.00;70.60
8420;DHT22;4247;48.550;8.822;2023-07-13T10:41:50;26.00;66.00
8420;DHT22;4247;48.550;8.822;2023-07-13T10:44:22;26.00;64.50
8420;DHT22;4247;48.550;8.822;2023-07-13T10:46:53;26.00;67.60
8420;DHT22;4247;48.550;8.822;2023-07-13T10:49:20;26.00;67.20
8420;DHT22;4247;48.550;8.822;2023-07-13T10:51:49;25.70;63.40
8420;DHT22;4247;48.550;8.822;2023-07-13T10:54:19;25.50;65.50
8420;DHT22;4247;48.550;8.822;2023-07-13T10:56:51;25.30;64.30
8420;DHT22;4247;48.550;8.822;2023-07-13T10:59:23;25.10;66.00
8420;DHT22;4247;48.550;8.822;2023-07-13T11:01:55;25.30;70.40
8420;DHT22;4247;48.550;8.822;2023-07-13T11:04:24;25.40;68.60
8420;DHT22;4247;48.550;8.822;2023-07-13T11:06:59;25.50;67.80
8420;DHT22;4247;48.550;8.822;2023-07-13T11:09:37;25.60;67.10
8420;DHT22;4247;48.550;8.822;2023-07-13T11:12:09;25.70;67.50
8420;DHT22;4247;48.550;8.822;2023-07-13T11:14:43;25.70;64.60
8420;DHT22;4247;48.550;8.822;2023-07-13T11:17:25;25.60;60.90
8420;DHT22;4247;48.550;8.822;2023-07-13T11:20:10;25.50;61.80
8420;DHT22;4247;48.550;8.822;2023-07-13T11:22:49;25.30;60.60
8420;DHT22;4247;48.550;8.822;2023-07-13T11:25:25;25.30;63.60
8420;DHT22;4247;48.550;8.822;2023-07-13T11:28:05;25.30;65.30
8420;DHT22;4247;48.550;8.822;2023-07-13T11:30:36;25.20;65.70
8420;DHT22;4247;48.550;8.822;2023-07-13T11:33:13;25.10;67.60
8420;DHT22;4247;48.550;8.822;2023-07-13T11:35:51;25.10;64.10
8420;DHT22;4247;48.550;8.822;2023-07-13T11:38:23;24.90;63.90
8420;DHT22;4247;48.550;8.822;2023-07-13T11:40:55;24.90;65.00
8420;DHT22;4247;48.550;8.822;2023-07-13T11:43:22;25.10;65.10
8420;DHT22;4247;48.550;8.822;2023-07-13T11:45:50;25.30;67.10
8420;DHT22;4247;48.550;8.822;2023-07-13T11:48:23;25.30;66.00
8420;DHT22;4247;48.550;8.822;2023-07-13T11:50:53;25.50;63.70
8420;DHT22;4247;48.550;8.822;2023-07-13T11:53:22;25.50;63.90
8420;DHT22;4247;48.550;8.822;2023-07-13T11:55:50;25.50;64.00
8420;DHT22;4247;48.550;8.822;2023-07-13T11:58:21;25.50;62.80
8420;DHT22;4247;48.550;8.822;2023-07-13T12:00:49;25.50;62.00
8420;DHT22;4247;48.550;8.822;2023-07-13T12:03:20;25.50;61.50
8420;DHT22;4247;48.550;8.822;2023-07-13T12:05:59;25.50;62.50
8420;DHT22;4247;48.550;8.822;2023-07-13T12:08:29;25.30;61.00
8420;DHT22;4247;48.550;8.822;2023-07-13T12:10:58;25.40;60.80
8420;DHT22;4247;48.550;8.822;2023-07-13T12:13:26;25.40;60.90
8420;DHT22;4247;48.550;8.822;2023-07-13T12:15:53;25.40;63.20
8420;DHT22;4247;48.550;8.822;2023-07-13T12:18:22;25.30;61.90
8420;DHT22;4247;48.550;8.822;2023-07-13T12:20:50;25.20;62.70
8420;DHT22;4247;48.550;8.822;2023-07-13T12:23:23;25.10;62.90
8420;DHT22;4247;48.550;8.822;2023-07-13T12:25:52;25.10;62.60
8420;DHT22;4247;48.550;8.822;2023-07-13T12:28:21;24.90;60.80
8420;DHT22;4247;48.550;8.822;2023-07-13T12:30:48;24.70;60.60
8420;DHT22;4247;48.550;8.822;2023-07-13T12:33:16;24.70;63.70
8420;DHT22;4247;48.550;8.822;2023-07-13T12:35:46;24.80;62.60
8420;DHT22;4247;48.550;8.822;2023-07-13T12:38:15;24.90;62.80
8420;DHT22;4247;48.550;8.822;2023-07-13T12:40:42;25.00;63.40
8420;DHT22;4247;48.550;8.822;2023-07-13T12:43:13;25.00;64.10
8420;DHT22;4247;48.550;8.822;2023-07-13T12:45:55;25.10;65.30
8420;DHT22;4247;48.550;8.822;2023-07-13T12:48:22;25.20;64.60
8420;DHT22;4247;48.550;8.822;2023-07-13T12:50:49;25.50;62.60
8420;DHT22;4247;48.550;8.822;2023-07-13T12:53:19;25.50;60.60
8420;DHT22;4247;48.550;8.822;2023-07-13T12:55:49;25.50;60.20
8420;DHT22;4247;48.550;8.822;2023-07-13T12:58:21;25.30;59.10
8420;DHT22;4247;48.550;8.822;2023-07-13T13:00:51;25.20;58.80
8420;DHT22;4247;48.550;8.822;2023-07-13T13:03:24;25.20;60.90
8420;DHT22;4247;48.550;8.822;2023-07-13T13:06:00;25.30;60.60
8420;DHT22;4247;48.550;8.822;2023-07-13T13:08:28;25.20;60.20
8420;DHT22;4247;48.550;8.822;2023-07-13T13:10:55;25.30;62.70
8420;DHT22;4247;48.550;8.822;2023-07-13T13:13:23;25.30;60.10
8420;DHT22;4247;48.550;8.822;2023-07-13T13:15:51;25.40;62.50
8420;DHT22;4247;48.550;8.822;2023-07-13T13:18:18;25.30;60.30
8420;DHT22;4247;48.550;8.822;2023-07-13T13:20:46;25.20;58.80
8420;DHT22;4247;48.550;8.822;2023-07-13T13:23:14;25.10;61.10
8420;DHT22;4247;48.550;8.822;2023-07-13T13:25:43;25.10;60.30
8420;DHT22;4247;48.550;8.822;2023-07-13T13:28:14;25.10;64.10
8420;DHT22;4247;48.550;8.822;2023-07-13T13:30:43;25.20;59.20
8420;DHT22;4247;48.550;8.822;2023-07-13T13:33:11;25.20;59.90
8420;DHT22;4247;48.550;8.822;2023-07-13T13:35:39;25.20;61.10
8420;DHT22;4247;48.550;8.822;2023-07-13T13:38:10;25.20;60.00
8420;DHT22;4247;48.550;8.822;2023-07-13T13:40:37;25.30;61.00
8420;DHT22;4247;48.550;8.822;2023-07-13T13:43:18;25.50;60.30
8420;DHT22;4247;48.550;8.822;2023-07-13T13:45:47;25.60;61.60
8420;DHT22;4247;48.550;8.822;2023-07-13T13:48:15;25.70;60.70
8420;DHT22;4247;48.550;8.822;2023-07-13T13:50:43;25.70;61.20
8420;DHT22;4247;48.550;8.822;2023-07-13T13:53:11;25.70;61.00
8420;DHT22;4247;48.550;8.822;2023-07-13T13:55:39;25.80;61.40
8420;DHT22;4247;48.550;8.822;2023-07-13T13:58:07;25.70;59.60
8420;DHT22;4247;48.550;8.822;2023-07-13T14:00:34;25.60;57.90
8420;DHT22;4247;48.550;8.822;2023-07-13T14:03:03;25.70;60.20
8420;DHT22;4247;48.550;8.822;2023-07-13T14:05:29;25.60;60.10
8420;DHT22;4247;48.550;8.822;2023-07-13T14:07:57;25.50;61.10
8420;DHT22;4247;48.550;8.822;2023-07-13T14:10:25;25.60;59.80
8420;DHT22;4247;48.550;8.822;2023-07-13T14:12:54;25.60;59.30
8420;DHT22;4247;48.550;8.822;2023-07-13T14:15:23;25.60;60.80
8420;DHT22;4247;48.550;8.822;2023-07-13T14:17:50;25.50;60.90
8420;DHT22;4247;48.550;8.822;2023-07-13T14:20:20;25.50;61.00
8420;DHT22;4247;48.550;8.822;2023-07-13T14:22:49;25.40;58.40
8420;DHT22;4247;48.550;8.822;2023-07-13T14:25:17;25.40;60.50
8420;DHT22;4247;48.550;8.822;2023-07-13T14:27:46;25.40;61.40
8420;DHT22;4247;48.550;8.822;2023-07-13T14:30:16;25.40;61.10
8420;DHT22;4247;48.550;8.822;2023-07-13T14:32:43;25.20;61.50
8420;DHT22;4247;48.550;8.822;2023-07-13T14:35:11;25.10;62.80
8420;DHT22;4247;48.550;8.822;2023-07-13T14:37:40;25.10;63.70
8420;DHT22;4247;48.550;8.822;2023-07-13T14:40:13;25.00;63.50
8420;DHT22;4247;48.550;8.822;2023-07-13T14:42:40;24.90;62.50
8420;DHT22;4247;48.550;8.822;2023-07-13T14:45:13;24.90;64.20
8420;DHT22;4247;48.550;8.822;2023-07-13T14:47:40;24.90;64.70
8420;DHT22;4247;48.550;8.822;2023-07-13T14:50:13;25.00;64.30
8420;DHT22;4247;48.550;8.822;2023-07-13T14:52:43;25.10;65.60
8420;DHT22;4247;48.550;8.822;2023-07-13T14:55:11;25.10;65.40
8420;DHT22;4247;48.550;8.822;2023-07-13T14:57:38;25.20;65.40
8420;DHT22;4247;48.550;8.822;2023-07-13T15:00:12;25.20;65.30
8420;DHT22;4247;48.550;8.822;2023-07-13T15:02:39;25.30;65.50
8420;DHT22;4247;48.550;8.822;2023-07-13T15:05:13;25.40;66.20
8420;DHT22;4247;48.550;8.822;2023-07-13T15:07:42;25.30;64.90
8420;DHT22;4247;48.550;8.822;2023-07-13T15:10:14;25.10;66.40
8420;DHT22;4247;48.550;8.822;2023-07-13T15:12:41;25.10;66.70
8420;DHT22;4247;48.550;8.822;2023-07-13T15:15:08;25.20;66.40
8420;DHT22;4247;48.550;8.822;2023-07-13T15:17:37;25.20;65.90
8420;DHT22;4247;48.550;8.822;2023-07-13T15:20:11;25.00;66.00
8420;DHT22;4247;48.550;8.822;2023-07-13T15:22:44;25.00;66.20
8420;DHT22;4247;48.550;8.822;2023-07-13T15:25:16;25.00;67.40
8420;DHT22;4247;48.550;8.822;2023-07-13T15:27:43;25.00;67.70
8420;DHT22;4247;48.550;8.822;2023-07-13T15:30:10;24.90;65.30
8420;DHT22;4247;48.550;8.822;2023-07-13T15:32:37;24.80;66.50
8420;DHT22;4247;48.550;8.822;2023-07-13T15:35:05;24.80;67.00
8420;DHT22;4247;48.550;8.822;2023-07-13T15:37:32;24.70;66.20
8420;DHT22;4247;48.550;8.822;2023-07-13T15:40:00;24.60;64.60
8420;DHT22;4247;48.550;8.822;2023-07-13T15:42:27;24.60;65.70
8420;DHT22;4247;48.550;8.822;2023-07-13T15:44:53;24.60;64.90
8420;DHT22;4247;48.550;8.822;2023-07-13T15:47:20;24.50;65.40
8420;DHT22;4247;48.550;8.822;2023-07-13T15:49:47;24.60;66.10
8420;DHT22;4247;48.550;8.822;2023-07-13T15:52:18;24.60;68.50
8420;DHT22;4247;48.550;8.822;2023-07-13T15:54:45;24.70;66.70
8420;DHT22;4247;48.550;8.822;2023-07-13T15:57:15;24.60;65.50
8420;DHT22;4247;48.550;8.822;2023-07-13T15:59:42;24.70;68.60
8420;DHT22;4247;48.550;8.822;2023-07-13T16:02:13;24.80;68.90
8420;DHT22;4247;48.550;8.822;2023-07-13T16:04:41;24.70;65.50
8420;DHT22;4247;48.550;8.822;2023-07-13T16:07:09;24.70;66.70
8420;DHT22;4247;48.550;8.822;2023-07-13T16:09:37;24.70;65.90
8420;DHT22;4247;48.550;8.822;2023-07-13T16:12:09;24.70;67.10
8420;DHT22;4247;48.550;8.822;2023-07-13T16:14:38;24.70;65.10